Airfield :







YOU CAN JOIN US ON...

 
LOGIN :

Register | Disclaimer

   EN    FR    IT 

 









Legend :    VFR   Marginal VFR   IFR   Intensive IFR   Very Intensive IFR
Visi :
Ceiling :
>= 8 km
>= 3000ft
5 to 8 km
1000 to 3000 ft
1500m to 5 km
500 to 1000 ft
800 to 1500m
200 to 500 ft
< 800m
< 200 ft
Symbols :   Thunderstorms  Fog  Heavy snow  Heavy precipitations  Wind > 20 kt






- Airport Elevation : 108 ft
- IATA code : YAY


CYAY - St Anthony

CURRENT METAR :
  • 190100Z AUTO 24014G19KT 9SM SCT008 14/12 A2982 RMK SLP099

EXPIRED METARs :
  • 190058Z AUTO 24015G20KT 9SM SCT008 14/12 A2981 RMK SLP098
  • 190000Z AUTO 24018G25KT 9SM OVC008 15/13 A2979 RMK SLP090 DENSITY ALT 300FT
  • 182329Z AUTO 24018G23KT 9SM OVC008 15/14 A2977 RMK SLP083 DENSITY ALT 400FT
  • 182318Z AUTO 24018KT 9SM BKN006 OVC011 15/14 A2977 RMK SLP082 DENSITY ALT 300FT
  • 182300Z AUTO 26016G24KT 9SM OVC009 16/14 A2975 RMK PRESRR SLP078 DENSITY ALT 500FT
  • 182244Z AUTO 25020G32KT 9SM OVC011 16/14 A2974 RMK SLP073 DENSITY ALT 500FT

TAF AMD TAF CYAY
Valid from the 19 at 00:00 until the 19 at 08:00 UTC


190015Z 1900/1908 22015G25KT P6SM OVC008
BECMG 1901/1903 28010KT FEW008 RMK FCST BASED ON AUTO OBS. NXT FCST BY 190200Z
CZQX FIR / North America



MET'MAP, your aeronautical weather chart ! - Copyright ORBIFLY December 2007 - Disclaimer

ORBIFLY MET'MAP TEAM :

Programming & Development : Alexandra Zaïnal
Concept & original design : Baudouin d'Aumeries
Assistance for programming : Marc-Olivier Méhu
Technical & hardware support : Manuel Goepfert

Contact : metmap@orbifly.com




SOURCES & CREDITS :

   NOAA